Main page
METAR-TAF:

METAR-TAF

Airports :

Fritzlar Air Base

Fritzlar, Germany

latitude: 51-07N, longitude: 009-17E, elevation: 172 m

Current weather observation

The report was made 1 hour and 9 minutes ago, at 18:20 UTC
Wind 12 kt from the South
Temperature 4°C
Humidity 70%
Pressure 1012 hPa
Visibility 10 km or more
Overcast at a height of 8000 ft

METAR: ETHF 281820Z 19012KT 9999 OVC080 04/M01 Q1012 BLU

Time: 20:29 (19:29 UTC)

Forecast

The report was made 9 hours and 9 minutes ago, at 10:20 UTC
Forecast valid from 28 at 09 UTC to 28 at 18 UTC
Wind 10 kt from the Southwest
Visibility: 1100 m
Few clouds at a height of 3000 ft

TAF: ETHF 281020Z 2809/2818 22010KT 9999 NSW FEW030 CANCEL 1100

Weather observations and forecasts of more than 4000 airports (METAR and TAF reports).

The available stations are represented by yellow and red dots on the map.

Hover mouse over dot to see the name of the station.

Then click to see weather observations and forecasts.

To change the map : click on the green buttons with a black cross to zoom in, on the green button with a dash to zoom out, or on the green arrows for adjacent maps.


METAR-TAF: